Thunder radar more information blitzortung!


Rain radar more information rain snow radar


Equipment we use:

Davis VP2

Weather Display

BareMetal


Nearby METAR Reports

   
CYAZ - Tofino, BC
Updated: 01-22-2018 17:00
NOT Current
Overcast  
Overcast  
   Wind: East 11.1 km/h
Wind: East 11.1 km/h
Temperature: 5°C
Wind Chill: 2°C
Dew Point: 4°C
Humidity: 93%
Barometer: 1022.4 hPa
Clouds: Overcast
Visibility: 24 km
Cloud details: Partly Cloudy 1432.6 m,
Mostly Cloudy 1706.9 m,
Overcast 2286 m
CYAZ 230100Z 09006KT 15SM SCT047 BKN056 OVC075 05/04 A3019 RMK SC3SC2AC3 LAST STFD OBS/NEXT 231500UTC SLP225
CYHE - Hope,BC
Updated: 01-22-2018 23:00
Overcast  
Overcast  
   Wind: East 11.1 km/h
Wind: East 11.1 km/h
Temperature: 2°C
Wind Chill: -1°C
Dew Point: 2°C
Humidity: 100%
Barometer: 1025.1 hPa
Clouds: Overcast
Visibility: 13 km
Cloud details: Overcast 2286 m
CYHE 230700Z AUTO 10006KT 8SM OVC075 02/02 A3027 RMK SLP252
CYYT - St. John's, NL
Updated: 01-22-2018 23:00
Few Clouds  
Few Clouds  
   Wind: West 42.6 km/h<br />Gust to 42.6 km/h
Wind: West 42.6 km/h
Gust to 42.6 km/h
Temperature: -9°C
Wind Chill: -19°C
Dew Point: -13°C
Humidity: 73%
Barometer: 1021.3 hPa
Clouds: Few Clouds
Visibility: 24 km
Cloud details: Few Clouds 7620 m
CYYT 230700Z 28023G28KT 15SM FEW250 M09/M13 A3016 RMK CI2 SLP226

Script developed by  Saratoga-weather.org Adapted for the template by  Weerstation Leuven